createdAt,value
2019-03-04T00:01:00.416Z,5.67
2019-03-04T00:03:30.271Z,5.67
2019-03-04T00:06:00.335Z,5.80
2019-03-04T00:08:30.235Z,4.93
2019-03-04T00:11:00.589Z,7.30
2019-03-04T00:13:30.374Z,5.50
2019-03-04T00:16:00.171Z,5.23
2019-03-04T00:18:29.950Z,5.50
2019-03-04T00:21:02.178Z,6.40
2019-03-04T00:23:32.257Z,5.60
2019-03-04T00:26:02.219Z,5.67
2019-03-04T00:28:31.747Z,5.93
2019-03-04T00:31:01.387Z,6.20
2019-03-04T00:33:30.991Z,5.77
2019-03-04T00:36:00.885Z,5.83
2019-03-04T00:38:30.520Z,5.83
2019-03-04T00:41:00.117Z,6.30
2019-03-04T00:43:29.885Z,5.77
2019-03-04T00:45:59.690Z,6.47
2019-03-04T00:48:29.523Z,5.50
2019-03-04T00:50:59.222Z,5.43
2019-03-04T00:53:28.997Z,6.70
2019-03-04T00:55:58.781Z,5.83
2019-03-04T00:58:28.631Z,6.13
2019-03-04T01:00:58.566Z,6.37
2019-03-04T01:03:28.332Z,6.03
2019-03-04T01:05:57.860Z,5.90
2019-03-04T01:08:28.238Z,6.20
2019-03-04T01:10:57.879Z,6.00
2019-03-04T01:13:30.481Z,6.23
2019-03-04T01:16:00.121Z,6.40
2019-03-04T01:18:29.789Z,6.00
2019-03-04T01:20:59.466Z,5.90
2019-03-04T01:23:30.436Z,6.43
2019-03-04T01:26:00.067Z,5.50
2019-03-04T01:28:29.588Z,5.63
2019-03-04T01:30:59.151Z,5.80
2019-03-04T01:33:29.259Z,6.00
2019-03-04T01:35:58.958Z,5.87
2019-03-04T01:38:28.744Z,5.27
2019-03-04T01:40:58.887Z,5.20
2019-03-04T01:43:29.965Z,5.23
2019-03-04T01:45:59.836Z,5.17
2019-03-04T01:48:29.334Z,5.10
2019-03-04T01:50:58.899Z,5.43
2019-03-04T01:53:28.736Z,5.20
2019-03-04T01:55:58.328Z,4.90
2019-03-04T01:58:27.991Z,4.80
2019-03-04T02:00:57.704Z,4.60
2019-03-04T02:03:27.778Z,4.87
2019-03-04T02:05:57.359Z,4.20
2019-03-04T02:08:27.176Z,4.63
2019-03-04T02:10:56.726Z,4.27
2019-03-04T02:13:26.746Z,4.43
2019-03-04T02:15:58.430Z,4.57
2019-03-04T02:18:28.241Z,5.00
2019-03-04T02:20:57.918Z,5.17
2019-03-04T02:23:27.537Z,5.63
2019-03-04T02:26:10.125Z,4.40
2019-03-04T02:28:39.941Z,4.57
2019-03-04T02:31:13.189Z,5.10
2019-03-04T02:33:42.959Z,5.13
2019-03-04T02:36:12.666Z,4.80
2019-03-04T02:38:44.174Z,4.40
2019-03-04T02:41:13.823Z,4.27
2019-03-04T02:43:44.865Z,4.27
2019-03-04T02:46:14.401Z,4.70
2019-03-04T02:48:44.048Z,4.63
2019-03-04T02:51:13.723Z,4.70
2019-03-04T02:53:43.845Z,5.67
2019-03-04T02:56:14.642Z,5.37
2019-03-04T02:58:44.273Z,4.80
2019-03-04T03:01:14.891Z,4.77
2019-03-04T03:03:44.668Z,4.47
2019-03-04T03:06:14.591Z,4.20
2019-03-04T03:08:44.256Z,4.50
2019-03-04T03:11:13.877Z,4.73
2019-03-04T03:13:43.580Z,5.37
2019-03-04T03:16:13.090Z,5.60
2019-03-04T03:18:46.426Z,6.03
2019-03-04T03:21:16.331Z,4.60
2019-03-04T03:23:46.009Z,5.20
2019-03-04T03:26:16.067Z,4.70
2019-03-04T03:28:45.757Z,4.47
2019-03-04T03:31:15.397Z,4.60
2019-03-04T03:33:45.109Z,5.40
2019-03-04T03:36:14.665Z,4.97
2019-03-04T03:38:44.186Z,4.60
2019-03-04T03:41:13.989Z,5.00
2019-03-04T03:43:43.645Z,4.33
2019-03-04T03:46:13.371Z,5.20
2019-03-04T03:48:47.167Z,3.90
2019-03-04T03:51:17.137Z,4.70
2019-03-04T03:53:50.436Z,4.67
2019-03-04T03:56:20.337Z,4.17
2019-03-04T03:58:49.999Z,4.17
2019-03-04T04:01:19.835Z,3.90
2019-03-04T04:03:49.510Z,3.77
2019-03-04T04:06:19.196Z,4.60
2019-03-04T04:08:49.120Z,4.63
2019-03-04T04:11:18.637Z,4.20
2019-03-04T04:13:48.342Z,4.10
2019-03-04T04:16:19.995Z,3.93
2019-03-04T04:18:49.862Z,3.93
2019-03-04T04:21:19.726Z,3.60
2019-03-04T04:23:49.441Z,4.00
2019-03-04T04:26:22.067Z,3.53
2019-03-04T04:28:54.486Z,3.50
2019-03-04T04:31:24.012Z,3.57
2019-03-04T04:33:53.573Z,3.73
2019-03-04T04:36:23.219Z,3.57
2019-03-04T04:38:52.883Z,4.10
2019-03-04T04:41:22.583Z,4.07
2019-03-04T04:43:52.231Z,3.53
2019-03-04T04:46:42.839Z,3.40
2019-03-04T04:49:12.774Z,3.43
2019-03-04T04:51:42.459Z,3.30
2019-03-04T04:54:12.124Z,3.00
2019-03-04T04:56:41.984Z,3.40
2019-03-04T04:59:11.716Z,3.97
2019-03-04T05:01:41.366Z,3.70
2019-03-04T05:04:11.240Z,3.87
2019-03-04T05:06:40.900Z,3.70
2019-03-04T05:09:13.426Z,3.10
2019-03-04T05:11:43.539Z,3.50
2019-03-04T05:14:13.084Z,3.83
2019-03-04T05:16:42.805Z,3.60
2019-03-04T05:19:12.862Z,3.40
2019-03-04T05:21:42.642Z,3.50
2019-03-04T05:24:12.375Z,4.20
2019-03-04T05:26:42.065Z,4.10
2019-03-04T05:29:11.779Z,4.30
2019-03-04T05:31:41.367Z,4.43
2019-03-04T05:34:12.291Z,3.93
2019-03-04T05:36:41.895Z,5.47
2019-03-04T05:39:11.567Z,4.53
2019-03-04T05:41:41.834Z,4.13
2019-03-04T05:44:11.539Z,3.80
2019-03-04T05:46:41.148Z,3.97
2019-03-04T05:49:10.852Z,3.90
2019-03-04T05:51:40.449Z,4.07
2019-03-04T05:54:09.979Z,3.90
2019-03-04T05:56:40.338Z,3.83
2019-03-04T05:59:19.132Z,3.40
2019-03-04T06:01:41.420Z,4.43
2019-03-04T06:04:11.234Z,3.90
2019-03-04T06:06:57.658Z,4.73
2019-03-04T06:09:28.261Z,3.97
2019-03-04T06:11:58.146Z,4.23
2019-03-04T06:14:27.829Z,4.10
2019-03-04T06:16:58.610Z,3.70
2019-03-04T06:19:28.303Z,3.77
2019-03-04T06:21:58.082Z,3.53
2019-03-04T06:24:27.737Z,4.17
2019-03-04T06:26:57.250Z,3.60
2019-03-04T06:29:26.881Z,3.67
2019-03-04T06:31:56.520Z,4.20
2019-03-04T06:34:26.145Z,4.40
2019-03-04T06:36:55.917Z,4.00
2019-03-04T06:39:25.689Z,3.27
2019-03-04T06:41:55.388Z,3.90
2019-03-04T06:44:24.989Z,3.80
2019-03-04T06:46:54.724Z,3.67
2019-03-04T06:49:24.326Z,3.70
2019-03-04T06:51:54.405Z,3.33
2019-03-04T06:54:40.343Z,3.70
2019-03-04T06:57:16.756Z,3.80
2019-03-04T06:59:56.307Z,3.30
2019-03-04T07:02:36.024Z,3.33
2019-03-04T07:05:18.895Z,3.27
2019-03-04T07:07:48.544Z,2.80
2019-03-04T07:10:18.195Z,2.77
2019-03-04T07:12:48.172Z,2.60
2019-03-04T07:15:17.741Z,3.13
2019-03-04T07:17:47.595Z,2.87
2019-03-04T07:20:21.836Z,2.50
2019-03-04T07:22:51.536Z,2.47
2019-03-04T07:25:21.117Z,3.40
2019-03-04T07:27:51.857Z,2.87
2019-03-04T07:30:22.313Z,2.60
2019-03-04T07:32:52.078Z,2.83
2019-03-04T07:35:22.052Z,2.50
2019-03-04T07:38:12.709Z,2.60
2019-03-04T07:40:42.346Z,2.43
2019-03-04T07:43:12.125Z,2.37
2019-03-04T07:45:41.688Z,2.70
2019-03-04T07:48:12.065Z,2.47
2019-03-04T07:50:41.701Z,2.17
2019-03-04T07:53:11.269Z,1.83
2019-03-04T07:55:40.948Z,2.37
2019-03-04T07:58:10.541Z,2.00
2019-03-04T08:00:40.302Z,2.33
2019-03-04T08:03:12.012Z,2.37
2019-03-04T08:05:41.792Z,2.10
2019-03-04T08:08:13.742Z,2.47
2019-03-04T08:11:05.574Z,1.63
2019-03-04T08:13:50.340Z,2.10
2019-03-04T08:16:20.029Z,2.00
2019-03-04T08:18:50.215Z,2.10
2019-03-04T08:21:19.883Z,2.00
2019-03-04T08:23:49.509Z,2.40
2019-03-04T08:26:19.157Z,1.77
2019-03-04T08:28:48.900Z,2.50
2019-03-04T08:31:20.882Z,1.70
2019-03-04T08:33:50.777Z,2.40
2019-03-04T08:36:20.476Z,2.20
2019-03-04T08:38:50.021Z,2.00
2019-03-04T08:41:19.728Z,1.93
2019-03-04T08:43:49.333Z,2.00
2019-03-04T08:46:19.424Z,1.87
2019-03-04T08:48:49.024Z,2.03
2019-03-04T08:51:18.742Z,2.10
2019-03-04T08:53:48.929Z,2.40
2019-03-04T08:56:18.725Z,1.60
2019-03-04T08:58:48.325Z,1.27
2019-03-04T09:01:18.008Z,1.10
2019-03-04T09:03:47.988Z,1.03
2019-03-04T09:06:17.521Z,1.20
2019-03-04T09:08:47.096Z,1.53
2019-03-04T09:11:16.749Z,1.37
2019-03-04T09:13:46.369Z,1.10
2019-03-04T09:16:18.049Z,1.03
2019-03-04T09:18:47.633Z,1.07
2019-03-04T09:21:17.243Z,1.10
2019-03-04T09:23:46.866Z,1.10
2019-03-04T09:26:16.404Z,1.20
2019-03-04T09:28:46.124Z,1.03
2019-03-04T09:31:15.893Z,1.57
2019-03-04T09:33:45.648Z,1.20
2019-03-04T09:36:15.387Z,1.13
2019-03-04T09:38:45.160Z,0.90
2019-03-04T09:41:14.827Z,1.00
2019-03-04T09:43:44.518Z,0.77
2019-03-04T09:46:14.275Z,0.60
2019-03-04T09:48:44.339Z,0.60
2019-03-04T09:51:23.841Z,0.70
2019-03-04T09:53:47.299Z,0.70
2019-03-04T09:56:16.834Z,0.60
2019-03-04T09:58:46.496Z,0.80
2019-03-04T10:01:26.301Z,1.10
2019-03-04T10:04:18.085Z,0.70
2019-03-04T10:07:01.129Z,0.73
2019-03-04T10:09:44.579Z,1.00
2019-03-04T10:12:31.053Z,0.90
2019-03-04T10:15:30.426Z,0.80
2019-03-04T10:18:07.388Z,0.97
2019-03-04T10:21:20.607Z,1.23
2019-03-04T10:24:18.143Z,0.70
2019-03-04T10:27:37.910Z,1.07
2019-03-04T10:30:21.897Z,1.50
2019-03-04T10:33:18.380Z,0.90
2019-03-04T10:35:58.531Z,1.20
2019-03-04T10:38:32.852Z,0.80
2019-03-04T10:41:25.457Z,0.70
2019-03-04T10:44:22.230Z,0.77
2019-03-04T10:46:58.542Z,1.00
2019-03-04T10:49:29.300Z,1.23
2019-03-04T10:51:58.899Z,0.90
2019-03-04T10:54:28.604Z,1.30
2019-03-04T10:56:58.782Z,1.03
2019-03-04T10:59:28.442Z,0.80
2019-03-04T11:01:58.315Z,1.00
2019-03-04T11:04:27.943Z,0.80
2019-03-04T11:06:58.028Z,0.90
2019-03-04T11:09:27.987Z,0.90
2019-03-04T11:11:57.753Z,1.03
2019-03-04T11:14:27.877Z,1.00
2019-03-04T11:16:57.537Z,0.90
2019-03-04T11:19:27.064Z,1.00
2019-03-04T11:21:56.787Z,1.10
2019-03-04T11:24:26.475Z,1.17
2019-03-04T11:26:56.096Z,1.00
2019-03-04T11:29:25.764Z,1.47
2019-03-04T11:31:55.810Z,1.10
2019-03-04T11:34:25.351Z,2.67
2019-03-04T11:36:55.786Z,1.23
2019-03-04T11:39:30.446Z,1.07
2019-03-04T11:42:00.209Z,1.60
2019-03-04T11:44:30.818Z,1.10
2019-03-04T11:47:02.659Z,1.20
2019-03-04T11:49:32.264Z,1.00
2019-03-04T11:52:05.391Z,1.73
2019-03-04T11:54:35.099Z,1.27
2019-03-04T11:57:04.876Z,1.17
2019-03-04T11:59:34.599Z,1.20
2019-03-04T12:02:06.639Z,1.33
2019-03-04T12:04:36.251Z,1.33
2019-03-04T12:07:05.844Z,1.23
2019-03-04T12:09:38.348Z,2.57
2019-03-04T12:12:08.011Z,1.80
2019-03-04T12:14:38.006Z,1.70
2019-03-04T12:17:09.007Z,2.20
2019-03-04T12:19:38.720Z,2.60
2019-03-04T12:22:08.325Z,2.50
2019-03-04T12:24:40.941Z,3.20
2019-03-04T12:27:10.933Z,1.20
2019-03-04T12:29:40.484Z,1.20
2019-03-04T12:32:12.130Z,1.40
2019-03-04T12:34:41.697Z,0.83
2019-03-04T12:37:11.378Z,1.00
2019-03-04T12:39:41.031Z,1.10
2019-03-04T12:42:10.772Z,1.10
2019-03-04T12:44:40.367Z,0.90
2019-03-04T12:47:10.099Z,1.00
2019-03-04T12:49:39.769Z,1.00
2019-03-04T12:52:09.431Z,1.00
2019-03-04T12:54:39.598Z,1.17
2019-03-04T12:57:09.210Z,0.90
2019-03-04T12:59:38.938Z,0.70
2019-03-04T13:02:08.732Z,1.07
2019-03-04T13:04:38.299Z,0.90
2019-03-04T13:07:07.925Z,1.23
2019-03-04T13:09:37.555Z,1.70
2019-03-04T13:12:07.737Z,0.80
2019-03-04T13:14:37.330Z,1.00
2019-03-04T13:17:08.120Z,0.80
2019-03-04T13:19:37.782Z,0.90
2019-03-04T13:22:08.759Z,1.20
2019-03-04T13:24:38.981Z,1.30
2019-03-04T13:27:08.669Z,1.17
2019-03-04T13:29:39.362Z,0.90
2019-03-04T13:32:09.397Z,0.80
2019-03-04T13:34:41.905Z,0.80
2019-03-04T13:37:11.569Z,1.30
2019-03-04T13:39:42.767Z,0.77
2019-03-04T13:42:12.877Z,1.47
2019-03-04T13:44:43.170Z,0.70
2019-03-04T13:47:12.960Z,1.20
2019-03-04T13:49:42.506Z,1.20
2019-03-04T13:52:12.783Z,1.20
2019-03-04T13:54:42.457Z,1.00
2019-03-04T13:57:14.571Z,0.90
2019-03-04T13:59:44.149Z,1.10
2019-03-04T14:02:15.093Z,1.17
2019-03-04T14:04:44.901Z,1.30
2019-03-04T14:07:14.521Z,0.97
2019-03-04T14:09:45.955Z,1.33
2019-03-04T14:12:15.759Z,1.10
2019-03-04T14:14:45.595Z,1.00
2019-03-04T14:17:15.205Z,1.20
2019-03-04T14:19:44.804Z,1.10
2019-03-04T14:22:14.417Z,1.10
2019-03-04T14:24:44.357Z,2.03
2019-03-04T14:27:14.347Z,1.23
2019-03-04T14:29:44.054Z,1.40
2019-03-04T14:32:13.864Z,1.07
2019-03-04T14:34:43.724Z,1.23
2019-03-04T14:37:13.472Z,1.70
2019-03-04T14:39:43.128Z,1.30
2019-03-04T14:42:12.828Z,1.47
2019-03-04T14:44:42.480Z,1.63
2019-03-04T14:47:12.972Z,1.60
2019-03-04T14:49:45.015Z,1.27
2019-03-04T14:52:14.384Z,1.40
2019-03-04T14:54:44.266Z,1.30
2019-03-04T14:57:14.725Z,1.60
2019-03-04T14:59:45.120Z,1.53
2019-03-04T15:02:15.236Z,1.60
2019-03-04T15:04:45.235Z,1.43
2019-03-04T15:07:15.262Z,1.43
2019-03-04T15:09:49.294Z,1.57
2019-03-04T15:12:16.261Z,1.40
2019-03-04T15:14:45.875Z,1.40
2019-03-04T15:17:30.770Z,1.50
2019-03-04T15:20:08.925Z,1.87
2019-03-04T15:22:34.807Z,1.80
2019-03-04T15:25:03.416Z,1.50
2019-03-04T15:27:33.061Z,1.40
2019-03-04T15:30:02.834Z,1.60
2019-03-04T15:32:33.630Z,1.80
2019-03-04T15:35:03.357Z,1.50
2019-03-04T15:37:33.636Z,1.90
2019-03-04T15:40:05.227Z,2.00
2019-03-04T15:42:35.009Z,2.00
2019-03-04T15:45:05.615Z,2.13
2019-03-04T15:47:37.195Z,1.80
2019-03-04T15:50:10.202Z,1.50
2019-03-04T15:52:41.401Z,1.63
2019-03-04T15:55:13.069Z,1.50
2019-03-04T15:57:42.783Z,1.90
2019-03-04T16:00:15.303Z,2.30
2019-03-04T16:02:48.786Z,2.10
2019-03-04T16:05:18.945Z,2.10
2019-03-04T16:07:48.810Z,1.67
2019-03-04T16:10:29.511Z,2.23
2019-03-04T16:13:00.592Z,1.80
2019-03-04T16:15:30.395Z,2.00
2019-03-04T16:18:00.556Z,2.27
2019-03-04T16:20:30.615Z,1.67
2019-03-04T16:23:00.579Z,2.00
2019-03-04T16:25:30.295Z,1.87
2019-03-04T16:28:04.674Z,1.80
2019-03-04T16:30:34.508Z,1.80
2019-03-04T16:33:04.345Z,1.70
2019-03-04T16:35:34.068Z,1.60
2019-03-04T16:38:03.657Z,2.23
2019-03-04T16:40:33.199Z,2.20
2019-03-04T16:43:03.150Z,1.57
2019-03-04T16:45:32.766Z,1.90
2019-03-04T16:48:02.610Z,2.40
2019-03-04T16:50:46.591Z,1.97
2019-03-04T16:53:32.326Z,1.50
2019-03-04T16:56:02.011Z,1.83
2019-03-04T16:58:31.804Z,2.00
2019-03-04T17:01:01.636Z,1.73
2019-03-04T17:03:31.741Z,2.30
2019-03-04T17:06:01.759Z,2.30
2019-03-04T17:08:31.761Z,2.67
2019-03-04T17:11:01.424Z,1.50
2019-03-04T17:13:31.543Z,2.00
2019-03-04T17:16:01.438Z,1.87
2019-03-04T17:18:31.171Z,2.30
2019-03-04T17:21:01.399Z,2.00
2019-03-04T17:23:31.122Z,2.27
2019-03-04T17:26:00.748Z,2.10
2019-03-04T17:28:31.582Z,2.80
2019-03-04T17:31:01.523Z,2.00
2019-03-04T17:33:31.269Z,2.60
2019-03-04T17:36:00.872Z,2.00
2019-03-04T17:38:31.227Z,2.90
2019-03-04T17:41:03.942Z,2.80
2019-03-04T17:43:33.788Z,2.80
2019-03-04T17:46:05.412Z,3.70
2019-03-04T17:48:35.059Z,2.33
2019-03-04T17:51:06.252Z,2.83
2019-03-04T17:53:36.528Z,3.33
2019-03-04T17:56:07.531Z,2.67
2019-03-04T17:58:37.251Z,2.57
2019-03-04T18:01:08.433Z,3.07
2019-03-04T18:03:38.062Z,3.63
2019-03-04T18:06:07.892Z,3.20
2019-03-04T18:08:37.881Z,2.83
2019-03-04T18:11:10.101Z,3.20
2019-03-04T18:13:40.003Z,3.27
2019-03-04T18:16:10.038Z,2.90
2019-03-04T18:18:39.994Z,4.40
2019-03-04T18:21:09.780Z,2.80
2019-03-04T18:23:40.090Z,3.60
2019-03-04T18:26:23.070Z,3.00
2019-03-04T18:29:18.599Z,3.33
2019-03-04T18:32:10.808Z,3.13
2019-03-04T18:35:06.406Z,3.37
2019-03-04T18:38:20.089Z,2.23
2019-03-04T18:41:18.699Z,2.77
2019-03-04T18:44:24.463Z,4.23
2019-03-04T18:47:17.731Z,2.53
2019-03-04T18:49:49.044Z,3.73
2019-03-04T18:52:19.206Z,3.33
2019-03-04T18:54:49.629Z,2.83
2019-03-04T18:57:22.536Z,2.50
2019-03-04T18:59:52.294Z,2.50
2019-03-04T19:02:22.588Z,3.27
2019-03-04T19:04:52.171Z,2.20
2019-03-04T19:07:24.430Z,3.13
2019-03-04T19:09:55.667Z,3.10
2019-03-04T19:12:25.408Z,2.80
2019-03-04T19:14:55.079Z,2.47
2019-03-04T19:17:33.363Z,2.90
2019-03-04T19:19:56.483Z,2.93
2019-03-04T19:22:26.165Z,5.43
2019-03-04T19:24:55.814Z,3.30
2019-03-04T19:27:25.473Z,3.43
2019-03-04T19:29:55.119Z,2.80
2019-03-04T19:32:25.579Z,3.83
2019-03-04T19:34:55.283Z,2.93
2019-03-04T19:37:24.966Z,2.77
2019-03-04T19:39:54.620Z,3.53
2019-03-04T19:42:24.294Z,2.53
2019-03-04T19:44:53.913Z,2.80
2019-03-04T19:47:25.262Z,3.03
2019-03-04T19:49:54.962Z,2.70
2019-03-04T19:52:24.628Z,2.90
2019-03-04T19:54:55.559Z,2.07
2019-03-04T19:57:26.031Z,3.10
2019-03-04T19:59:55.775Z,2.50
2019-03-04T20:02:25.488Z,2.50
2019-03-04T20:04:55.634Z,2.67
2019-03-04T20:07:25.627Z,2.90
2019-03-04T20:09:55.722Z,3.00
2019-03-04T20:12:25.357Z,2.17
2019-03-04T20:14:55.144Z,1.80
2019-03-04T20:17:25.180Z,2.90
2019-03-04T20:19:54.730Z,3.23
2019-03-04T20:22:24.407Z,2.13
2019-03-04T20:24:57.042Z,2.37
2019-03-04T20:27:26.810Z,2.53
2019-03-04T20:29:56.716Z,2.97
2019-03-04T20:32:26.972Z,3.27
2019-03-04T20:34:56.651Z,2.80
2019-03-04T20:37:27.290Z,2.57
2019-03-04T20:40:00.032Z,2.97
2019-03-04T20:42:29.701Z,3.40
2019-03-04T20:44:59.292Z,2.57
2019-03-04T20:47:29.416Z,2.80
2019-03-04T20:49:59.049Z,4.20
2019-03-04T20:52:28.551Z,3.27
2019-03-04T20:54:58.175Z,3.60
2019-03-04T20:57:27.716Z,2.63
2019-03-04T20:59:57.547Z,2.87
2019-03-04T21:02:27.305Z,3.03
2019-03-04T21:05:03.099Z,3.77
2019-03-04T21:07:33.267Z,3.20
2019-03-04T21:10:02.989Z,3.00
2019-03-04T21:12:32.736Z,4.07
2019-03-04T21:15:02.507Z,3.10
2019-03-04T21:17:32.521Z,3.23
2019-03-04T21:20:02.106Z,3.20
2019-03-04T21:22:31.805Z,3.90
2019-03-04T21:25:01.884Z,3.53
2019-03-04T21:27:31.462Z,3.17
2019-03-04T21:30:58.437Z,3.40
2019-03-04T21:33:36.812Z,3.43
2019-03-04T21:36:27.819Z,3.50
2019-03-04T21:39:00.750Z,3.53
2019-03-04T21:41:35.056Z,3.10
2019-03-04T21:44:17.903Z,3.67
2019-03-04T21:47:11.373Z,3.13
2019-03-04T21:49:46.174Z,3.70
2019-03-04T21:52:41.570Z,3.57
2019-03-04T21:55:33.883Z,3.10
2019-03-04T21:58:03.590Z,3.40
2019-03-04T22:00:36.196Z,3.47
2019-03-04T22:03:16.948Z,3.07
2019-03-04T22:05:50.162Z,3.80
2019-03-04T22:08:19.205Z,2.93
2019-03-04T22:10:49.158Z,3.30
2019-03-04T22:13:18.888Z,3.70
2019-03-04T22:15:49.107Z,3.60
2019-03-04T22:18:19.086Z,3.43
2019-03-04T22:20:48.822Z,3.40
2019-03-04T22:23:18.949Z,3.67
2019-03-04T22:25:48.820Z,3.07
2019-03-04T22:28:21.466Z,4.43
2019-03-04T22:30:51.577Z,4.10
2019-03-04T22:33:23.101Z,4.40
2019-03-04T22:35:54.697Z,4.40
2019-03-04T22:38:24.311Z,5.60
2019-03-04T22:40:54.174Z,4.67
2019-03-04T22:43:23.943Z,5.80
2019-03-04T22:45:53.778Z,5.70
2019-03-04T22:48:24.340Z,5.07
2019-03-04T22:50:54.289Z,5.93
2019-03-04T22:53:24.158Z,5.60
2019-03-04T22:55:55.583Z,6.27
2019-03-04T22:58:28.842Z,5.80
2019-03-04T23:01:03.451Z,5.87
2019-03-04T23:03:37.314Z,6.97
2019-03-04T23:06:27.056Z,6.30
2019-03-04T23:08:56.812Z,6.20
2019-03-04T23:11:30.932Z,6.43
2019-03-04T23:14:11.764Z,6.50
2019-03-04T23:16:41.545Z,6.67
2019-03-04T23:19:11.293Z,6.80
2019-03-04T23:21:43.236Z,5.70
2019-03-04T23:24:15.926Z,7.00
2019-03-04T23:26:48.512Z,6.10
2019-03-04T23:29:18.244Z,5.70
2019-03-04T23:31:47.925Z,5.93
2019-03-04T23:34:17.546Z,6.20
2019-03-04T23:36:49.409Z,5.70
2019-03-04T23:39:19.202Z,5.70
2019-03-04T23:41:49.154Z,5.10
2019-03-04T23:44:19.090Z,4.97
2019-03-04T23:46:48.829Z,5.53
2019-03-04T23:49:18.534Z,4.83
2019-03-04T23:51:48.259Z,5.90
2019-03-04T23:54:17.896Z,5.27
2019-03-04T23:56:47.758Z,5.70
2019-03-04T23:59:17.711Z,6.30
